Time;durP1;ratioP1;P1;durP2;ratioP2;P2;SDS_P1;SDS_P2;PMS_P1;PMS_P2;Temp;Humidity;BMP_temperature;BMP_pressure;BME280_temperature;BME280_humidity;BME280_pressure;Samples;Min_cycle;Max_cycle;Signal;HPM_P1;HPM_P2
2021/09/01 00:00:50;;;;;;;6.40;2.95;;;;;;;;;;6176604;28;20097;-69
2021/09/01 00:03:52;;;;;;;6.95;2.45;;;;;;;;;;6179380;28;20209;-75
2021/09/01 00:06:54;;;;;;;5.97;2.70;;;;;;;;;;6175487;28;20093;-71
2021/09/01 00:09:56;;;;;;;6.35;2.55;;;;;;;;;;6176981;28;20050;-69
2021/09/01 00:12:57;;;;;;;4.25;2.40;;;;;;;;;;6174371;28;20488;-72
2021/09/01 00:16:00;;;;;;;6.20;2.75;;;;;;;;;;6175961;28;20101;-69
2021/09/01 00:19:04;;;;;;;4.68;2.30;;;;;;;;;;6176604;28;20128;-69
2021/09/01 00:22:06;;;;;;;6.47;2.55;;;;;;;;;;6174096;28;20092;-71
2021/09/01 00:25:09;;;;;;;5.50;2.25;;;;;;;;;;6179755;28;20483;-74
2021/09/01 00:28:10;;;;;;;5.22;2.30;;;;;;;;;;6174245;28;20117;-69
2021/09/01 00:31:14;;;;;;;3.72;2.30;;;;;;;;;;6174316;28;20046;-71
2021/09/01 00:34:16;;;;;;;3.53;2.35;;;;;;;;;;6178820;28;20662;-67
2021/09/01 00:37:18;;;;;;;4.18;2.30;;;;;;;;;;6169518;28;20051;-71
2021/09/01 00:40:19;;;;;;;3.53;2.28;;;;;;;;;;6178949;28;20390;-75
2021/09/01 00:43:21;;;;;;;3.90;2.40;;;;;;;;;;6182910;28;20069;-68
2021/09/01 00:46:25;;;;;;;5.00;2.53;;;;;;;;;;6170576;28;20057;-68
2021/09/01 00:49:27;;;;;;;4.32;2.45;;;;;;;;;;6181085;28;20104;-67
2021/09/01 00:52:29;;;;;;;4.07;2.38;;;;;;;;;;6172566;28;20050;-68
2021/09/01 00:55:32;;;;;;;3.75;2.50;;;;;;;;;;6172697;28;20173;-76
2021/09/01 00:58:37;;;;;;;2.38;1.83;;;;;;;;;;6180926;28;20120;-71
2021/09/01 01:01:39;;;;;;;3.00;2.17;;;;;;;;;;6175839;28;20043;-71
2021/09/01 01:04:41;;;;;;;3.17;2.40;;;;;;;;;;6186697;28;20197;-68
2021/09/01 01:07:43;;;;;;;3.33;2.17;;;;;;;;;;6179897;28;20163;-67
2021/09/01 01:10:45;;;;;;;3.70;2.30;;;;;;;;;;6178726;28;20069;-69
2021/09/01 01:13:48;;;;;;;4.30;2.30;;;;;;;;;;6188051;28;20053;-69
2021/09/01 01:16:52;;;;;;;3.25;2.30;;;;;;;;;;6173449;28;20034;-69
2021/09/01 01:19:54;;;;;;;3.83;2.20;;;;;;;;;;6186299;28;20133;-68
2021/09/01 01:22:56;;;;;;;3.83;2.05;;;;;;;;;;6177448;28;20089;-71
2021/09/01 01:25:59;;;;;;;3.30;1.90;;;;;;;;;;6177230;28;20122;-70
2021/09/01 01:29:03;;;;;;;3.20;2.25;;;;;;;;;;6188342;28;20616;-73
2021/09/01 01:32:05;;;;;;;3.20;2.30;;;;;;;;;;6177346;28;20046;-69
2021/09/01 01:35:08;;;;;;;4.57;2.20;;;;;;;;;;6180345;28;20116;-76
2021/09/01 01:38:11;;;;;;;3.30;2.15;;;;;;;;;;6183930;28;20055;-76
2021/09/01 01:41:14;;;;;;;3.45;2.15;;;;;;;;;;6179287;28;20495;-68
2021/09/01 01:44:16;;;;;;;5.70;2.10;;;;;;;;;;6186525;28;20073;-68
2021/09/01 01:47:17;;;;;;;4.85;2.47;;;;;;;;;;6177555;28;20050;-74
2021/09/01 01:50:19;;;;;;;3.65;2.40;;;;;;;;;;6187420;28;20431;-76
2021/09/01 01:53:20;;;;;;;2.55;2.00;;;;;;;;;;6187432;28;20129;-67
2021/09/01 01:56:23;;;;;;;3.10;2.10;;;;;;;;;;6184219;28;20125;-69
2021/09/01 01:59:25;;;;;;;4.70;2.40;;;;;;;;;;6189155;28;20459;-68
2021/09/01 02:02:30;;;;;;;3.90;2.38;;;;;;;;;;6176172;28;20043;-67
2021/09/01 02:05:32;;;;;;;3.75;2.28;;;;;;;;;;6180053;28;20058;-79
2021/09/01 02:08:33;;;;;;;3.40;2.28;;;;;;;;;;6181272;28;20137;-67
2021/09/01 02:11:36;;;;;;;8.73;2.97;;;;;;;;;;6182954;28;20100;-77
2021/09/01 02:14:38;;;;;;;4.53;2.45;;;;;;;;;;6183357;28;20039;-69
2021/09/01 02:17:41;;;;;;;7.00;2.47;;;;;;;;;;6176010;28;20060;-73
2021/09/01 02:20:42;;;;;;;3.10;2.40;;;;;;;;;;6173403;28;20560;-73
2021/09/01 02:23:44;;;;;;;3.95;2.50;;;;;;;;;;6186310;28;20604;-74
2021/09/01 02:26:47;;;;;;;3.35;2.40;;;;;;;;;;6174938;28;20128;-68
2021/09/01 02:29:49;;;;;;;3.90;2.80;;;;;;;;;;6181815;28;20055;-68
2021/09/01 02:32:50;;;;;;;3.55;2.10;;;;;;;;;;6176076;28;20194;-68
2021/09/01 02:35:52;;;;;;;4.05;2.15;;;;;;;;;;6174392;28;20447;-68
2021/09/01 02:38:53;;;;;;;4.50;2.92;;;;;;;;;;6186046;28;20650;-68
2021/09/01 02:41:56;;;;;;;3.47;2.78;;;;;;;;;;6180000;28;20135;-67
2021/09/01 02:44:59;;;;;;;4.47;2.83;;;;;;;;;;6185385;28;20112;-68
2021/09/01 02:48:02;;;;;;;4.43;2.50;;;;;;;;;;6172861;28;20046;-67
2021/09/01 02:51:03;;;;;;;3.50;2.63;;;;;;;;;;6178880;28;20085;-67
2021/09/01 02:54:05;;;;;;;4.80;2.60;;;;;;;;;;6182946;28;20729;-68
2021/09/01 02:57:08;;;;;;;4.78;2.60;;;;;;;;;;6176675;28;20182;-72
2021/09/01 03:00:11;;;;;;;4.13;2.50;;;;;;;;;;6179236;28;20137;-76
2021/09/01 03:03:12;;;;;;;3.57;2.80;;;;;;;;;;6175616;28;20050;-68
2021/09/01 03:06:14;;;;;;;3.78;2.80;;;;;;;;;;6176212;28;20080;-75
2021/09/01 03:09:15;;;;;;;3.90;2.75;;;;;;;;;;6184857;28;20050;-67
2021/09/01 03:12:18;;;;;;;4.60;2.75;;;;;;;;;;6177968;28;20132;-67
2021/09/01 03:15:20;;;;;;;5.00;2.90;;;;;;;;;;6182170;28;20068;-74
2021/09/01 03:18:21;;;;;;;6.57;3.00;;;;;;;;;;6174320;28;20540;-77
2021/09/01 03:21:23;;;;;;;6.22;2.78;;;;;;;;;;6173907;28;20180;-67
2021/09/01 03:24:25;;;;;;;4.85;3.00;;;;;;;;;;6185170;28;20128;-69
2021/09/01 03:27:27;;;;;;;3.33;2.90;;;;;;;;;;6175615;28;20501;-71
2021/09/01 03:30:29;;;;;;;4.82;2.70;;;;;;;;;;6173002;28;20084;-76
2021/09/01 03:33:31;;;;;;;6.30;3.22;;;;;;;;;;6173284;28;20046;-72
2021/09/01 03:36:33;;;;;;;7.25;3.13;;;;;;;;;;6173738;28;20122;-69
2021/09/01 03:39:34;;;;;;;4.13;2.90;;;;;;;;;;6180978;28;20178;-70
2021/09/01 03:42:37;;;;;;;5.53;3.05;;;;;;;;;;6179792;28;20046;-68
2021/09/01 03:45:39;;;;;;;7.35;3.20;;;;;;;;;;6177488;28;20133;-73
2021/09/01 03:48:41;;;;;;;3.72;2.95;;;;;;;;;;6180302;28;20095;-67
2021/09/01 03:51:42;;;;;;;5.15;3.20;;;;;;;;;;6178939;28;20050;-69
2021/09/01 03:54:44;;;;;;;4.97;3.30;;;;;;;;;;6178818;28;20136;-67
2021/09/01 03:57:48;;;;;;;6.45;3.45;;;;;;;;;;6173148;28;20046;-75
2021/09/01 04:00:49;;;;;;;4.53;2.67;;;;;;;;;;6175606;28;20039;-67
2021/09/01 04:03:51;;;;;;;4.90;3.13;;;;;;;;;;6177761;28;20133;-74
2021/09/01 04:06:52;;;;;;;4.22;2.42;;;;;;;;;;6176192;28;20853;-73
2021/09/01 04:09:54;;;;;;;9.65;3.20;;;;;;;;;;6180231;28;20051;-71
2021/09/01 04:12:57;;;;;;;3.50;2.78;;;;;;;;;;6179795;28;20042;-68
2021/09/01 04:15:58;;;;;;;4.55;3.25;;;;;;;;;;6176096;28;20129;-67
2021/09/01 04:19:00;;;;;;;6.07;3.08;;;;;;;;;;6179408;28;20046;-68
2021/09/01 04:22:01;;;;;;;8.15;3.75;;;;;;;;;;6175223;28;20104;-75
2021/09/01 04:25:04;;;;;;;8.05;3.78;;;;;;;;;;6182521;28;20097;-67
2021/09/01 04:28:07;;;;;;;5.18;3.65;;;;;;;;;;6177074;28;20055;-67
2021/09/01 04:31:08;;;;;;;7.60;3.73;;;;;;;;;;6176432;28;20550;-75
2021/09/01 04:34:10;;;;;;;8.00;4.68;;;;;;;;;;6179493;28;20064;-68
2021/09/01 04:37:11;;;;;;;8.88;4.88;;;;;;;;;;6177557;28;20194;-68
2021/09/01 04:40:13;;;;;;;7.35;4.75;;;;;;;;;;6184101;28;20058;-77
2021/09/01 04:43:16;;;;;;;6.07;4.32;;;;;;;;;;6182892;28;20251;-67
2021/09/01 04:46:18;;;;;;;5.55;4.38;;;;;;;;;;6182818;28;20042;-68
2021/09/01 04:49:19;;;;;;;5.68;4.47;;;;;;;;;;6180585;28;20042;-68
2021/09/01 04:52:21;;;;;;;7.85;4.18;;;;;;;;;;6181113;28;20125;-74
2021/09/01 04:55:22;;;;;;;6.05;4.93;;;;;;;;;;6188962;28;20402;-75
2021/09/01 04:58:25;;;;;;;7.10;4.80;;;;;;;;;;6190844;28;20074;-68
2021/09/01 05:01:27;;;;;;;5.80;4.43;;;;;;;;;;6185959;28;20054;-68
2021/09/01 05:04:28;;;;;;;5.18;4.30;;;;;;;;;;6190757;28;20566;-69
2021/09/01 05:07:30;;;;;;;8.43;4.45;;;;;;;;;;6187730;28;20043;-67
2021/09/01 05:10:32;;;;;;;6.00;4.22;;;;;;;;;;6186183;28;20065;-77
2021/09/01 05:13:36;;;;;;;7.38;4.30;;;;;;;;;;6187561;28;20056;-67
2021/09/01 05:16:37;;;;;;;6.55;3.75;;;;;;;;;;6179142;28;20046;-67
2021/09/01 05:19:39;;;;;;;8.18;4.22;;;;;;;;;;6185495;28;20136;-67
2021/09/01 05:22:45;;;;;;;5.53;3.47;;;;;;;;;;6184139;28;20048;-68
2021/09/01 05:25:55;;;;;;;5.43;3.10;;;;;;;;;;6179181;28;20418;-69
2021/09/01 05:29:00;;;;;;;6.32;3.15;;;;;;;;;;6189341;28;20034;-68
2021/09/01 05:32:02;;;;;;;6.80;3.55;;;;;;;;;;6180980;28;20381;-69
2021/09/01 05:35:05;;;;;;;5.30;3.35;;;;;;;;;;6192942;28;20125;-71
2021/09/01 05:38:07;;;;;;;4.90;3.20;;;;;;;;;;6178117;28;20137;-69
2021/09/01 05:41:09;;;;;;;4.68;3.22;;;;;;;;;;6182314;28;20163;-77
2021/09/01 05:44:12;;;;;;;4.07;2.63;;;;;;;;;;6187376;28;20093;-67
2021/09/01 05:47:15;;;;;;;6.85;2.78;;;;;;;;;;6180330;28;20129;-75
2021/09/01 05:50:17;;;;;;;8.50;2.85;;;;;;;;;;6188388;28;20046;-78
2021/09/01 05:53:19;;;;;;;3.97;2.65;;;;;;;;;;6184239;28;20141;-67
2021/09/01 05:56:26;;;;;;;8.93;2.80;;;;;;;;;;6184202;28;20128;-67
2021/09/01 05:59:30;;;;;;;6.47;2.63;;;;;;;;;;6190524;28;20498;-78
2021/09/01 06:02:39;;;;;;;6.35;3.08;;;;;;;;;;6178287;28;20398;-70
2021/09/01 06:05:44;;;;;;;6.05;2.92;;;;;;;;;;6178023;28;20046;-74
2021/09/01 06:08:47;;;;;;;4.97;3.20;;;;;;;;;;6183387;28;20085;-67
2021/09/01 06:11:49;;;;;;;4.63;3.63;;;;;;;;;;6180155;28;20085;-67
2021/09/01 06:14:52;;;;;;;10.10;3.90;;;;;;;;;;6185361;28;20178;-69
2021/09/01 06:17:54;;;;;;;7.85;4.38;;;;;;;;;;6179820;28;20486;-67
2021/09/01 06:20:55;;;;;;;5.35;3.60;;;;;;;;;;6157123;28;20140;-70
2021/09/01 06:23:57;;;;;;;5.70;3.90;;;;;;;;;;6186136;28;20049;-69
2021/09/01 06:26:59;;;;;;;6.28;3.75;;;;;;;;;;6184884;28;20457;-68
2021/09/01 06:30:02;;;;;;;11.32;4.20;;;;;;;;;;6192100;28;20515;-68
2021/09/01 06:33:04;;;;;;;6.53;3.92;;;;;;;;;;6180519;28;20039;-68
2021/09/01 06:36:06;;;;;;;7.97;4.40;;;;;;;;;;6186034;28;20508;-69
2021/09/01 06:39:07;;;;;;;6.72;3.58;;;;;;;;;;6186484;28;20053;-75
2021/09/01 06:42:09;;;;;;;5.75;3.78;;;;;;;;;;6180637;28;20557;-72
2021/09/01 06:45:13;;;;;;;6.72;3.80;;;;;;;;;;6183630;28;20141;-78
2021/09/01 06:48:15;;;;;;;7.18;4.07;;;;;;;;;;6181988;28;20490;-71
2021/09/01 06:51:17;;;;;;;5.07;3.50;;;;;;;;;;6185644;28;20084;-67
2021/09/01 06:54:18;;;;;;;6.68;3.78;;;;;;;;;;6184317;28;20062;-68
2021/09/01 06:57:20;;;;;;;6.57;3.80;;;;;;;;;;6183734;28;20092;-69
2021/09/01 07:00:23;;;;;;;3.95;3.45;;;;;;;;;;6178504;28;20055;-77
2021/09/01 07:03:24;;;;;;;6.70;3.70;;;;;;;;;;6181852;28;20070;-76
2021/09/01 07:06:26;;;;;;;6.25;3.60;;;;;;;;;;6183236;28;21863;-68
2021/09/01 07:09:28;;;;;;;5.00;3.20;;;;;;;;;;6182568;28;20092;-69
2021/09/01 07:12:29;;;;;;;8.82;3.80;;;;;;;;;;6183554;28;20462;-78
2021/09/01 07:15:32;;;;;;;5.90;3.08;;;;;;;;;;6183493;28;20046;-79
2021/09/01 07:18:34;;;;;;;6.53;3.53;;;;;;;;;;6183223;28;20184;-68
2021/09/01 07:21:35;;;;;;;6.00;2.75;;;;;;;;;;6184955;28;20041;-71
2021/09/01 07:24:37;;;;;;;5.30;3.15;;;;;;;;;;6182077;28;20494;-69
2021/09/01 07:27:38;;;;;;;4.32;2.22;;;;;;;;;;6180339;28;20057;-69
2021/09/01 07:30:41;;;;;;;4.40;2.22;;;;;;;;;;6187615;28;20130;-68
2021/09/01 07:33:43;;;;;;;4.90;2.38;;;;;;;;;;6182244;28;21229;-69
2021/09/01 07:36:44;;;;;;;5.35;2.40;;;;;;;;;;6179437;28;20042;-69
2021/09/01 07:39:46;;;;;;;3.05;2.17;;;;;;;;;;6186912;28;20053;-68
2021/09/01 07:42:47;;;;;;;5.43;2.10;;;;;;;;;;6183037;28;20038;-68
2021/09/01 07:45:50;;;;;;;3.60;1.90;;;;;;;;;;6178476;28;20048;-72
2021/09/01 07:48:57;;;;;;;4.15;1.98;;;;;;;;;;6184847;28;20125;-76
2021/09/01 07:51:59;;;;;;;6.55;1.80;;;;;;;;;;6176931;28;20106;-68
2021/09/01 07:55:00;;;;;;;2.20;1.60;;;;;;;;;;6185376;28;20053;-76
2021/09/01 07:58:02;;;;;;;5.88;2.15;;;;;;;;;;6177696;28;20213;-69
2021/09/01 08:01:05;;;;;;;3.97;1.73;;;;;;;;;;6178403;28;20129;-80
2021/09/01 08:04:06;;;;;;;;;;;;;;;;;;6182453;28;20563;-71
2021/09/01 08:07:08;;;;;;;124.60;9.75;;;;;;;;;;6175774;28;19921;-68
2021/09/01 08:10:10;;;;;;;34.05;4.43;;;;;;;;;;6180971;28;20526;-79
2021/09/01 08:13:12;;;;;;;4.65;2.15;;;;;;;;;;6179753;28;20055;-68
2021/09/01 08:16:15;;;;;;;3.78;2.20;;;;;;;;;;6175543;28;20054;-75
2021/09/01 08:19:16;;;;;;;4.20;2.05;;;;;;;;;;6182202;28;20172;-68
2021/09/01 08:22:18;;;;;;;6.10;1.80;;;;;;;;;;6182045;28;20390;-69
2021/09/01 08:25:19;;;;;;;4.70;1.75;;;;;;;;;;6182729;28;20074;-78
2021/09/01 08:28:21;;;;;;;7.20;1.70;;;;;;;;;;6185952;28;20093;-70
2021/09/01 08:31:24;;;;;;;21.65;2.78;;;;;;;;;;6176428;28;20097;-68
2021/09/01 08:34:25;;;;;;;7.78;2.38;;;;;;;;;;6184114;28;20093;-68
2021/09/01 08:37:28;;;;;;;3.28;1.88;;;;;;;;;;6178998;28;20038;-71
2021/09/01 08:40:29;;;;;;;;;;;;;;;;;;6184613;28;20794;-78
2021/09/01 08:43:33;;;;;;;5.72;1.92;;;;;;;;;;6164136;28;20013;-71
2021/09/01 08:46:38;;;;;;;2.35;1.50;;;;;;;;;;6179116;28;20579;-68
2021/09/01 08:49:39;;;;;;;4.05;2.00;;;;;;;;;;6190129;28;20051;-70
2021/09/01 08:52:41;;;;;;;9.27;2.03;;;;;;;;;;6180745;28;20112;-70
2021/09/01 08:55:43;;;;;;;2.70;1.73;;;;;;;;;;6183141;28;20133;-78
2021/09/01 08:58:45;;;;;;;1.80;1.50;;;;;;;;;;6187310;28;20043;-72
2021/09/01 09:01:49;;;;;;;3.55;1.80;;;;;;;;;;6182733;28;20089;-69
2021/09/01 09:04:51;;;;;;;3.63;1.52;;;;;;;;;;6184815;28;20042;-69
2021/09/01 09:07:53;;;;;;;2.67;1.65;;;;;;;;;;6179634;28;20042;-80
2021/09/01 09:10:54;;;;;;;2.47;1.65;;;;;;;;;;6186113;28;20039;-69
2021/09/01 09:13:56;;;;;;;2.92;1.40;;;;;;;;;;6192020;28;20059;-69
2021/09/01 09:17:05;;;;;;;4.60;1.60;;;;;;;;;;6179676;28;20521;-69
2021/09/01 09:20:08;;;;;;;2.35;1.27;;;;;;;;;;6188166;28;20137;-81
2021/09/01 09:23:10;;;;;;;5.63;1.60;;;;;;;;;;6181865;28;20046;-69
2021/09/01 09:26:26;;;;;;;2.08;1.73;;;;;;;;;;6178071;28;20538;-74
2021/09/01 09:29:30;;;;;;;2.45;1.80;;;;;;;;;;6185537;28;20553;-69
2021/09/01 09:32:33;;;;;;;3.45;2.17;;;;;;;;;;6172911;28;20128;-70
2021/09/01 09:35:50;;;;;;;4.95;2.30;;;;;;;;;;6175222;28;20100;-76
2021/09/01 09:38:52;;;;;;;4.32;1.92;;;;;;;;;;6181286;28;20198;-70
2021/09/01 09:41:54;;;;;;;4.70;2.27;;;;;;;;;;6174442;28;20104;-71
2021/09/01 09:44:55;;;;;;;6.15;1.92;;;;;;;;;;6160249;28;20467;-71
2021/09/01 09:47:58;;;;;;;4.87;2.03;;;;;;;;;;6170781;28;20073;-71
2021/09/01 09:51:02;;;;;;;2.85;1.92;;;;;;;;;;6181440;28;20458;-72
2021/09/01 09:54:14;;;;;;;4.95;2.55;;;;;;;;;;6190597;28;20050;-75
2021/09/01 09:57:16;;;;;;;3.80;2.10;;;;;;;;;;6183881;28;20061;-70
2021/09/01 10:00:18;;;;;;;3.55;2.70;;;;;;;;;;6176652;28;20054;-76
2021/09/01 10:03:21;;;;;;;3.88;2.58;;;;;;;;;;6176330;28;20243;-73
2021/09/01 10:06:23;;;;;;;4.85;2.05;;;;;;;;;;6172548;28;20038;-71
2021/09/01 10:09:25;;;;;;;2.38;1.92;;;;;;;;;;6182846;28;20585;-71
2021/09/01 10:12:26;;;;;;;;;;;;;;;;;;6173174;28;20042;-71
2021/09/01 10:15:30;;;;;;;3.17;2.30;;;;;;;;;;6177450;28;19928;-76
2021/09/01 10:18:34;;;;;;;3.13;2.08;;;;;;;;;;6174516;28;20081;-71
2021/09/01 10:21:39;;;;;;;4.35;1.83;;;;;;;;;;6174997;28;20060;-75
2021/09/01 10:24:44;;;;;;;5.03;2.17;;;;;;;;;;6178757;28;20051;-71
2021/09/01 10:27:46;;;;;;;3.80;2.33;;;;;;;;;;6177134;28;20494;-70
2021/09/01 10:31:19;;;;;;;6.68;2.63;;;;;;;;;;6173859;28;20882;-74
2021/09/01 10:34:23;;;;;;;4.03;1.83;;;;;;;;;;6177239;28;20169;-71
2021/09/01 10:37:39;;;;;;;3.47;2.40;;;;;;;;;;6175405;28;20054;-75
2021/09/01 10:40:55;;;;;;;4.10;2.10;;;;;;;;;;6173725;28;20081;-71
2021/09/01 10:43:57;;;;;;;6.88;3.08;;;;;;;;;;6180196;28;20046;-74
2021/09/01 10:47:02;;;;;;;5.05;2.00;;;;;;;;;;6170874;28;20521;-71
2021/09/01 10:50:07;;;;;;;3.95;2.10;;;;;;;;;;6178534;28;20071;-70
2021/09/01 10:53:19;;;;;;;5.28;3.83;;;;;;;;;;6174028;28;20379;-71
2021/09/01 10:56:20;;;;;;;;;;;;;;;;;;6178885;28;21085;-70
2021/09/01 10:59:24;;;;;;;4.53;3.40;;;;;;;;;;6182592;28;20414;-70
2021/09/01 11:02:26;;;;;;;5.05;2.80;;;;;;;;;;6167865;28;20087;-71
2021/09/01 11:05:29;;;;;;;5.15;3.00;;;;;;;;;;6169966;28;20045;-70
2021/09/01 11:08:31;;;;;;;6.25;3.72;;;;;;;;;;6178454;28;20088;-72
2021/09/01 11:11:50;;;;;;;5.10;2.85;;;;;;;;;;6171151;28;20502;-69
2021/09/01 11:14:52;;;;;;;5.18;3.30;;;;;;;;;;6183531;28;20415;-68
2021/09/01 11:18:04;;;;;;;5.30;3.42;;;;;;;;;;6166539;28;20039;-70
2021/09/01 11:21:09;;;;;;;4.05;2.55;;;;;;;;;;6176138;28;20181;-72
2021/09/01 11:24:12;;;;;;;4.05;2.50;;;;;;;;;;6180901;28;20118;-71
2021/09/01 11:27:14;;;;;;;5.18;3.03;;;;;;;;;;6183986;28;20177;-68
2021/09/01 11:30:17;;;;;;;5.88;3.05;;;;;;;;;;6187363;28;20050;-74
2021/09/01 11:33:19;;;;;;;5.88;2.55;;;;;;;;;;6182346;28;20057;-76
2021/09/01 11:36:23;;;;;;;3.22;2.17;;;;;;;;;;6178858;28;20146;-69
2021/09/01 11:39:25;;;;;;;6.00;2.25;;;;;;;;;;6186003;28;20057;-71
2021/09/01 11:42:26;;;;;;;3.53;2.65;;;;;;;;;;6181266;28;20125;-74
2021/09/01 11:45:28;;;;;;;4.45;2.42;;;;;;;;;;6180711;28;20088;-72
2021/09/01 11:48:39;;;;;;;6.82;2.88;;;;;;;;;;6180939;28;20074;-69
2021/09/01 11:51:43;;;;;;;3.75;2.58;;;;;;;;;;6178286;28;20048;-72
2021/09/01 11:54:45;;;;;;;3.90;2.75;;;;;;;;;;6184244;28;20050;-68
2021/09/01 11:57:46;;;;;;;4.63;3.05;;;;;;;;;;6181379;28;20092;-71
2021/09/01 12:00:48;;;;;;;3.58;2.72;;;;;;;;;;6179994;28;20272;-69
2021/09/01 12:03:51;;;;;;;3.05;2.55;;;;;;;;;;6187464;28;20517;-70
2021/09/01 12:06:55;;;;;;;2.38;2.10;;;;;;;;;;6186868;28;20125;-71
2021/09/01 12:09:58;;;;;;;5.47;2.42;;;;;;;;;;6182923;28;20181;-68
2021/09/01 12:13:01;;;;;;;3.90;2.30;;;;;;;;;;6184021;28;20046;-70
2021/09/01 12:16:03;;;;;;;2.75;2.20;;;;;;;;;;6180418;28;20066;-77
2021/09/01 12:19:11;;;;;;;4.68;2.30;;;;;;;;;;6183043;28;20154;-69
2021/09/01 12:22:14;;;;;;;2.97;2.25;;;;;;;;;;6181289;28;20057;-69
2021/09/01 12:25:17;;;;;;;2.88;1.90;;;;;;;;;;6179764;28;20137;-75
2021/09/01 12:28:19;;;;;;;5.72;2.63;;;;;;;;;;6182717;28;20046;-74
2021/09/01 12:31:21;;;;;;;4.65;2.60;;;;;;;;;;6178701;28;20206;-69
2021/09/01 12:34:32;;;;;;;2.60;2.20;;;;;;;;;;6185635;28;20047;-69
2021/09/01 12:37:37;;;;;;;4.70;2.70;;;;;;;;;;6175834;28;20180;-70
2021/09/01 12:40:40;;;;;;;6.82;3.30;;;;;;;;;;6181062;28;20556;-70
2021/09/01 12:43:42;;;;;;;4.22;3.40;;;;;;;;;;6181353;28;20062;-70
2021/09/01 12:46:43;;;;;;;2.97;2.33;;;;;;;;;;6163500;28;20529;-70
2021/09/01 12:49:47;;;;;;;3.83;2.40;;;;;;;;;;6180781;28;20137;-72
2021/09/01 12:52:50;;;;;;;5.68;3.00;;;;;;;;;;6176729;28;20380;-70
2021/09/01 12:55:54;;;;;;;7.43;2.90;;;;;;;;;;6176357;28;20074;-70
2021/09/01 12:58:55;;;;;;;4.90;2.80;;;;;;;;;;6181042;28;20552;-73
2021/09/01 13:01:57;;;;;;;4.40;2.25;;;;;;;;;;6170401;28;20157;-72
2021/09/01 13:04:58;;;;;;;6.47;2.30;;;;;;;;;;6177602;28;20547;-76
2021/09/01 13:08:02;;;;;;;4.00;2.20;;;;;;;;;;6178420;28;20185;-73
2021/09/01 13:11:03;;;;;;;4.07;2.63;;;;;;;;;;6174149;28;20046;-72
2021/09/01 13:14:05;;;;;;;4.15;2.22;;;;;;;;;;6183610;28;20051;-71
2021/09/01 13:17:07;;;;;;;6.72;2.75;;;;;;;;;;6170747;28;20081;-70
2021/09/01 13:20:10;;;;;;;5.28;2.38;;;;;;;;;;6179619;28;20053;-70
2021/09/01 13:23:12;;;;;;;2.97;2.33;;;;;;;;;;6181149;28;20176;-70
2021/09/01 13:26:14;;;;;;;4.63;2.45;;;;;;;;;;6174959;28;20051;-69
2021/09/01 13:29:16;;;;;;;3.67;2.00;;;;;;;;;;6185123;28;20054;-70
2021/09/01 13:32:17;;;;;;;3.95;2.22;;;;;;;;;;6168797;28;20129;-74
2021/09/01 13:35:19;;;;;;;4.85;2.65;;;;;;;;;;6183844;28;20433;-78
2021/09/01 13:38:22;;;;;;;2.58;2.35;;;;;;;;;;6188280;28;20635;-70
2021/09/01 13:41:24;;;;;;;3.00;2.30;;;;;;;;;;6178155;28;20053;-71
2021/09/01 13:44:25;;;;;;;6.22;2.20;;;;;;;;;;6186070;28;20128;-73
2021/09/01 13:47:27;;;;;;;2.92;2.10;;;;;;;;;;6169940;28;20038;-71
2021/09/01 13:50:28;;;;;;;;;;;;;;;;;;6184894;28;20078;-68
2021/09/01 13:53:31;;;;;;;2.58;2.22;;;;;;;;;;6193734;28;20050;-69
2021/09/01 13:56:33;;;;;;;4.35;1.90;;;;;;;;;;6186572;28;20053;-72
2021/09/01 13:59:35;;;;;;;3.88;1.98;;;;;;;;;;6188116;28;20081;-70
2021/09/01 14:02:36;;;;;;;;;;;;;;;;;;6172631;28;20177;-69
2021/09/01 14:05:38;;;;;;;4.45;2.20;;;;;;;;;;6175435;28;19983;-69
2021/09/01 14:08:42;;;;;;;5.38;2.42;;;;;;;;;;6186595;28;20104;-71
2021/09/01 14:11:44;;;;;;;4.05;2.38;;;;;;;;;;6180629;28;20080;-74
2021/09/01 14:14:46;;;;;;;5.05;2.40;;;;;;;;;;6184911;28;20137;-69
2021/09/01 14:17:47;;;;;;;4.65;1.80;;;;;;;;;;6165861;28;20046;-68
2021/09/01 14:20:49;;;;;;;;;;;;;;;;;;6172607;28;20046;-69
2021/09/01 14:23:52;;;;;;;4.95;1.90;;;;;;;;;;6180218;28;19930;-68
2021/09/01 14:26:53;;;;;;;3.50;1.75;;;;;;;;;;6173917;28;20062;-70
2021/09/01 14:29:55;;;;;;;5.32;1.60;;;;;;;;;;6182152;28;20057;-70
2021/09/01 14:32:56;;;;;;;;;;;;;;;;;;6170138;28;20228;-70
2021/09/01 14:35:59;;;;;;;3.90;1.92;;;;;;;;;;6171403;28;23445;-69
2021/09/01 14:39:04;;;;;;;3.67;2.30;;;;;;;;;;6179753;28;20181;-76
2021/09/01 14:42:06;;;;;;;3.53;1.95;;;;;;;;;;6173355;28;20143;-73
2021/09/01 14:45:08;;;;;;;;;;;;;;;;;;6179953;28;20053;-73
2021/09/01 14:48:09;;;;;;;3.13;1.80;;;;;;;;;;6166476;28;19947;-69
2021/09/01 14:51:11;;;;;;;3.50;1.73;;;;;;;;;;6170322;28;20050;-69
2021/09/01 14:54:14;;;;;;;5.38;2.28;;;;;;;;;;6181421;28;20084;-69
2021/09/01 14:57:16;;;;;;;5.57;2.05;;;;;;;;;;6177676;28;20137;-69
2021/09/01 15:00:18;;;;;;;4.43;2.60;;;;;;;;;;6179184;28;20046;-74
2021/09/01 15:03:20;;;;;;;3.33;1.90;;;;;;;;;;6177053;28;20074;-76
2021/09/01 15:06:22;;;;;;;4.00;2.00;;;;;;;;;;6173390;28;20125;-68
2021/09/01 15:09:25;;;;;;;3.08;1.67;;;;;;;;;;6175173;28;20046;-66
2021/09/01 15:12:26;;;;;;;3.65;1.83;;;;;;;;;;6175864;28;20062;-69
2021/09/01 15:15:28;;;;;;;;;;;;;;;;;;6175685;28;20189;-69
2021/09/01 15:18:30;;;;;;;2.95;1.70;;;;;;;;;;6177118;28;19922;-69
2021/09/01 15:21:31;;;;;;;8.38;1.90;;;;;;;;;;6175100;28;20141;-71
2021/09/01 15:24:35;;;;;;;;;;;;;;;;;;6182440;28;20046;-71
2021/09/01 15:27:36;;;;;;;6.95;2.50;;;;;;;;;;6174831;28;19936;-70
2021/09/01 15:30:38;;;;;;;3.50;2.60;;;;;;;;;;6170925;28;20050;-73
2021/09/01 15:33:40;;;;;;;6.72;2.28;;;;;;;;;;6172397;28;20077;-73
2021/09/01 15:36:42;;;;;;;3.70;2.25;;;;;;;;;;6174016;28;20043;-69
2021/09/01 15:39:45;;;;;;;4.57;2.00;;;;;;;;;;6180537;28;20411;-70
2021/09/01 15:42:48;;;;;;;5.47;2.20;;;;;;;;;;6169392;28;20095;-69
2021/09/01 15:45:50;;;;;;;5.75;1.75;;;;;;;;;;6169547;28;20133;-70
2021/09/01 15:48:59;;;;;;;2.85;2.03;;;;;;;;;;6176766;28;20265;-72
2021/09/01 15:52:01;;;;;;;8.18;2.00;;;;;;;;;;6173026;28;20065;-70
2021/09/01 15:55:06;;;;;;;7.18;2.17;;;;;;;;;;6179517;28;20449;-69
2021/09/01 15:58:09;;;;;;;5.20;1.88;;;;;;;;;;6176165;28;20134;-69
2021/09/01 16:01:12;;;;;;;4.47;2.40;;;;;;;;;;6170991;28;20050;-72
2021/09/01 16:04:16;;;;;;;2.53;2.05;;;;;;;;;;6176402;28;20451;-70
2021/09/01 16:07:17;;;;;;;4.95;2.40;;;;;;;;;;6171095;28;20087;-73
2021/09/01 16:10:20;;;;;;;3.80;2.25;;;;;;;;;;6172527;28;20589;-74
2021/09/01 16:13:24;;;;;;;3.42;2.30;;;;;;;;;;6177470;28;20050;-71
2021/09/01 16:16:27;;;;;;;2.53;2.25;;;;;;;;;;6174391;28;20543;-73
2021/09/01 16:19:38;;;;;;;8.52;2.70;;;;;;;;;;6169142;28;20133;-71
2021/09/01 16:22:43;;;;;;;4.43;2.50;;;;;;;;;;6169945;28;20554;-70
2021/09/01 16:25:46;;;;;;;6.18;2.97;;;;;;;;;;6175013;28;20138;-71
2021/09/01 16:28:48;;;;;;;9.57;2.70;;;;;;;;;;6184922;28;20065;-68
2021/09/01 16:31:50;;;;;;;4.80;3.00;;;;;;;;;;6180131;28;20129;-69
2021/09/01 16:34:52;;;;;;;5.13;2.83;;;;;;;;;;6182535;28;20125;-69
2021/09/01 16:37:56;;;;;;;;;;;;;;;;;;6179182;28;20492;-70
2021/09/01 16:40:59;;;;;;;6.35;3.03;;;;;;;;;;6181011;28;19926;-69
2021/09/01 16:44:02;;;;;;;6.38;2.15;;;;;;;;;;6184042;28;20514;-72
2021/09/01 16:47:04;;;;;;;6.82;2.63;;;;;;;;;;6174789;28;20607;-68
2021/09/01 16:50:07;;;;;;;4.03;2.58;;;;;;;;;;6181564;28;20052;-77
2021/09/01 16:53:15;;;;;;;8.43;2.60;;;;;;;;;;6184427;28;20114;-71
2021/09/01 16:56:24;;;;;;;3.33;2.50;;;;;;;;;;6165999;28;20043;-74
2021/09/01 16:59:32;;;;;;;8.52;2.85;;;;;;;;;;6187196;28;20129;-69
2021/09/01 17:02:37;;;;;;;3.55;2.30;;;;;;;;;;6178927;28;20167;-68
2021/09/01 17:05:39;;;;;;;6.20;2.78;;;;;;;;;;6179141;28;20192;-74
2021/09/01 17:08:41;;;;;;;4.63;2.25;;;;;;;;;;6181541;28;20039;-70
2021/09/01 17:11:45;;;;;;;5.95;2.17;;;;;;;;;;6174959;28;20042;-69
2021/09/01 17:14:47;;;;;;;6.15;2.85;;;;;;;;;;6187085;28;20133;-71
2021/09/01 17:17:49;;;;;;;9.20;2.28;;;;;;;;;;6175838;28;20546;-70
2021/09/01 17:20:51;;;;;;;4.68;1.75;;;;;;;;;;6176708;28;20069;-71
2021/09/01 17:23:52;;;;;;;8.38;1.65;;;;;;;;;;6184132;28;20499;-70
2021/09/01 17:26:57;;;;;;;2.75;1.70;;;;;;;;;;6182798;28;20104;-76
2021/09/01 17:30:03;;;;;;;4.22;1.70;;;;;;;;;;6184768;28;20149;-72
2021/09/01 17:33:05;;;;;;;3.42;2.00;;;;;;;;;;6176337;28;20051;-70
2021/09/01 17:36:07;;;;;;;4.45;1.52;;;;;;;;;;6179733;28;20054;-75
2021/09/01 17:39:09;;;;;;;2.33;1.40;;;;;;;;;;6184990;28;20112;-69
2021/09/01 17:42:12;;;;;;;4.20;1.40;;;;;;;;;;6175302;28;20137;-72
2021/09/01 17:45:14;;;;;;;5.18;1.48;;;;;;;;;;6182397;28;20137;-78
2021/09/01 17:48:18;;;;;;;6.88;1.85;;;;;;;;;;6183463;28;20129;-69
2021/09/01 17:51:21;;;;;;;6.43;1.48;;;;;;;;;;6186697;28;20114;-75
2021/09/01 17:54:23;;;;;;;3.40;1.63;;;;;;;;;;6192077;28;20073;-70
2021/09/01 17:57:26;;;;;;;6.40;1.50;;;;;;;;;;6186067;28;20038;-71
2021/09/01 18:00:27;;;;;;;7.25;1.38;;;;;;;;;;6187185;28;20046;-70
2021/09/01 18:03:29;;;;;;;3.67;1.25;;;;;;;;;;6187713;28;20056;-70
2021/09/01 18:06:31;;;;;;;5.28;1.40;;;;;;;;;;6181192;28;20169;-69
2021/09/01 18:09:32;;;;;;;2.92;1.60;;;;;;;;;;6186395;28;20046;-69
2021/09/01 18:12:35;;;;;;;5.15;1.60;;;;;;;;;;6182940;28;20166;-74
2021/09/01 18:15:40;;;;;;;6.63;1.77;;;;;;;;;;6179309;28;20090;-69
2021/09/01 18:18:41;;;;;;;3.80;1.50;;;;;;;;;;6187918;28;20042;-69